Time;durP1;ratioP1;P1;durP2;ratioP2;P2;SDS_P1;SDS_P2;PMS_P1;PMS_P2;Temp;Humidity;BMP_temperature;BMP_pressure;BME280_temperature;BME280_humidity;BME280_pressure;Samples;Min_cycle;Max_cycle;Signal;HPM_P1;HPM_P2
2023/10/29 00:01:53;;;;;;;3.13;1.90;;;;;;;;;;5018685;28;20233;-84
2023/10/29 00:04:19;;;;;;;2.27;1.27;;;;;;;;;;5018392;28;20209;-85
2023/10/29 00:06:46;;;;;;;1.30;0.97;;;;;;;;;;5055290;28;20403;-87
2023/10/29 00:09:11;;;;;;;1.55;1.10;;;;;;;;;;5055024;28;20412;-85
2023/10/29 00:11:37;;;;;;;2.27;1.20;;;;;;;;;;5054365;28;20272;-82
2023/10/29 00:14:04;;;;;;;1.77;0.93;;;;;;;;;;5054804;28;20416;-85
2023/10/29 00:16:30;;;;;;;2.30;1.60;;;;;;;;;;5054492;28;20412;-85
2023/10/29 00:18:56;;;;;;;3.30;1.58;;;;;;;;;;5037824;28;20908;-82
2023/10/29 00:21:22;;;;;;;2.67;1.07;;;;;;;;;;5053945;28;20188;-87
2023/10/29 00:23:50;;;;;;;1.50;1.10;;;;;;;;;;5053609;28;20845;-86
2023/10/29 00:26:19;;;;;;;4.70;1.15;;;;;;;;;;5054117;28;20420;-86
2023/10/29 00:28:45;;;;;;;3.05;1.65;;;;;;;;;;5053387;28;20182;-86
2023/10/29 00:31:11;;;;;;;4.53;1.70;;;;;;;;;;5054910;28;20656;-87
2023/10/29 00:33:36;;;;;;;2.15;1.45;;;;;;;;;;5037047;28;20416;-86
2023/10/29 00:36:04;;;;;;;1.93;1.20;;;;;;;;;;5054139;28;20181;-86
2023/10/29 00:38:30;;;;;;;3.63;1.40;;;;;;;;;;5053850;28;20414;-84
2023/10/29 00:40:56;;;;;;;3.63;1.20;;;;;;;;;;5053798;28;20494;-86
2023/10/29 00:43:22;;;;;;;2.17;1.40;;;;;;;;;;5053490;28;20424;-84
2023/10/29 00:45:52;;;;;;;5.40;1.77;;;;;;;;;;5053852;28;20420;-85
2023/10/29 00:48:18;;;;;;;2.60;1.00;;;;;;;;;;5053781;28;20431;-85
2023/10/29 00:50:44;;;;;;;1.90;0.90;;;;;;;;;;5054870;28;20514;-85
2023/10/29 00:53:10;;;;;;;5.80;0.97;;;;;;;;;;5054824;28;20415;-86
2023/10/29 00:55:37;;;;;;;2.27;1.43;;;;;;;;;;5053284;28;20412;-87
2023/10/29 00:58:04;;;;;;;1.27;1.00;;;;;;;;;;5055021;28;20442;-85
2023/10/29 01:00:30;;;;;;;2.60;1.27;;;;;;;;;;5042965;28;20468;-85
2023/10/29 01:02:56;;;;;;;3.58;1.48;;;;;;;;;;5033713;28;20417;-80
2023/10/29 01:05:22;;;;;;;3.03;1.07;;;;;;;;;;5035044;28;20205;-85
2023/10/29 01:07:49;;;;;;;3.67;1.17;;;;;;;;;;5033514;28;20479;-85
2023/10/29 01:10:16;;;;;;;3.30;1.37;;;;;;;;;;5033467;28;20417;-83
2023/10/29 01:12:44;;;;;;;1.48;1.35;;;;;;;;;;5014119;28;20981;-83
2023/10/29 01:15:10;;;;;;;3.10;1.23;;;;;;;;;;5014150;28;20191;-85
2023/10/29 01:17:36;;;;;;;2.73;1.33;;;;;;;;;;5013493;28;20421;-81
2023/10/29 01:20:03;;;;;;;2.50;1.20;;;;;;;;;;5013944;28;20407;-83
2023/10/29 01:22:29;;;;;;;1.90;1.17;;;;;;;;;;5014954;28;20446;-85
2023/10/29 01:24:55;;;;;;;1.70;0.90;;;;;;;;;;5013659;28;20493;-85
2023/10/29 01:27:21;;;;;;;2.30;1.30;;;;;;;;;;5014681;28;20425;-83
2023/10/29 01:29:47;;;;;;;3.33;1.10;;;;;;;;;;5013558;28;20409;-84
2023/10/29 01:32:14;;;;;;;2.37;1.50;;;;;;;;;;5014769;28;20894;-84
2023/10/29 01:34:40;;;;;;;2.57;1.30;;;;;;;;;;5026234;28;20416;-84
2023/10/29 01:37:06;;;;;;;2.60;1.37;;;;;;;;;;5017285;28;20421;-85
2023/10/29 01:39:32;;;;;;;3.00;1.17;;;;;;;;;;5032556;28;20421;-83
2023/10/29 01:41:58;;;;;;;1.67;0.90;;;;;;;;;;5033661;28;20417;-79
2023/10/29 01:44:24;;;;;;;3.90;1.20;;;;;;;;;;5033707;28;20460;-80
2023/10/29 01:46:50;;;;;;;1.23;1.13;;;;;;;;;;5033559;28;20414;-83
2023/10/29 01:49:16;;;;;;;2.00;1.33;;;;;;;;;;5033489;28;20435;-81
2023/10/29 01:51:42;;;;;;;1.30;1.03;;;;;;;;;;5033219;28;20220;-84
2023/10/29 01:54:08;;;;;;;2.50;1.10;;;;;;;;;;5034532;28;20412;-82
2023/10/29 01:56:34;;;;;;;3.70;1.20;;;;;;;;;;5033466;28;20401;-83
2023/10/29 01:59:00;;;;;;;2.20;1.30;;;;;;;;;;5017533;28;20427;-82
2023/10/29 02:01:26;;;;;;;3.03;1.53;;;;;;;;;;5032955;28;20460;-81
2023/10/29 02:03:53;;;;;;;1.27;1.13;;;;;;;;;;5033316;28;20480;-81
2023/10/29 02:06:19;;;;;;;2.23;1.13;;;;;;;;;;5017368;28;20420;-80
2023/10/29 02:08:45;;;;;;;5.30;1.40;;;;;;;;;;5016931;28;20425;-83
2023/10/29 02:11:11;;;;;;;1.50;0.97;;;;;;;;;;5034492;28;20253;-83
2023/10/29 02:13:37;;;;;;;2.13;1.57;;;;;;;;;;5033417;28;20510;-83
2023/10/29 02:16:03;;;;;;;4.10;1.27;;;;;;;;;;5033001;28;20929;-78
2023/10/29 02:18:29;;;;;;;2.53;1.23;;;;;;;;;;5034127;28;20402;-86
2023/10/29 02:20:55;;;;;;;2.38;1.42;;;;;;;;;;5032789;28;20416;-85
2023/10/29 02:23:21;;;;;;;3.73;1.40;;;;;;;;;;5015846;28;20193;-85
2023/10/29 02:25:47;;;;;;;2.35;1.10;;;;;;;;;;5021224;28;20786;-84
2023/10/29 02:28:14;;;;;;;2.67;1.23;;;;;;;;;;5052969;28;20199;-86
2023/10/29 02:30:39;;;;;;;4.80;1.90;;;;;;;;;;5052648;28;20470;-85
2023/10/29 02:33:06;;;;;;;4.23;1.40;;;;;;;;;;5035958;28;20412;-85
2023/10/29 02:35:32;;;;;;;3.22;0.90;;;;;;;;;;5053940;28;20499;-85
2023/10/29 02:37:58;;;;;;;5.22;1.23;;;;;;;;;;5036070;28;20181;-85
2023/10/29 02:40:24;;;;;;;1.93;1.10;;;;;;;;;;5035902;28;20195;-86
2023/10/29 02:42:50;;;;;;;3.58;1.10;;;;;;;;;;5032559;28;20787;-78
2023/10/29 02:45:16;;;;;;;3.50;1.10;;;;;;;;;;5033326;28;20221;-82
2023/10/29 02:47:42;;;;;;;2.17;0.90;;;;;;;;;;5033459;28;20427;-85
2023/10/29 02:50:08;;;;;;;1.80;1.10;;;;;;;;;;5017299;28;20511;-82
2023/10/29 02:52:34;;;;;;;3.88;1.10;;;;;;;;;;5036419;28;20420;-82
2023/10/29 02:55:00;;;;;;;1.60;0.90;;;;;;;;;;5050104;28;20629;-84
2023/10/29 02:57:29;;;;;;;1.53;0.80;;;;;;;;;;5056966;28;20397;-85
2023/10/29 02:59:55;;;;;;;1.48;0.85;;;;;;;;;;5056555;28;20404;-78
2023/10/29 03:02:21;;;;;;;1.93;0.80;;;;;;;;;;5056951;28;20165;-85
2023/10/29 03:04:47;;;;;;;2.70;0.90;;;;;;;;;;5055914;28;20488;-85
2023/10/29 03:07:13;;;;;;;2.70;0.93;;;;;;;;;;5056114;28;20845;-86
2023/10/29 03:09:40;;;;;;;1.30;1.00;;;;;;;;;;5056732;28;20428;-86
2023/10/29 03:12:06;;;;;;;1.30;1.00;;;;;;;;;;5055381;28;20415;-80
2023/10/29 03:14:32;;;;;;;2.30;1.00;;;;;;;;;;5057020;28;20440;-86
2023/10/29 03:16:58;;;;;;;3.33;0.73;;;;;;;;;;5056017;28;20423;-84
2023/10/29 03:19:24;;;;;;;3.30;1.37;;;;;;;;;;5039232;28;20415;-85
2023/10/29 03:21:50;;;;;;;2.03;0.80;;;;;;;;;;5038576;28;20456;-80
2023/10/29 03:24:17;;;;;;;2.40;0.87;;;;;;;;;;5037597;28;20519;-84
2023/10/29 03:26:43;;;;;;;2.40;1.10;;;;;;;;;;5019316;28;20536;-85
2023/10/29 03:29:09;;;;;;;1.20;0.80;;;;;;;;;;5036789;28;20535;-81
2023/10/29 03:31:35;;;;;;;2.00;0.80;;;;;;;;;;5036803;28;20433;-84
2023/10/29 03:34:04;;;;;;;2.00;0.80;;;;;;;;;;5037388;28;20405;-85
2023/10/29 03:36:30;;;;;;;1.33;1.00;;;;;;;;;;5035924;28;20463;-85
2023/10/29 03:38:56;;;;;;;0.80;0.60;;;;;;;;;;5019123;28;20221;-84
2023/10/29 03:41:23;;;;;;;1.33;0.70;;;;;;;;;;5036845;28;20427;-82
2023/10/29 03:43:49;;;;;;;1.57;0.93;;;;;;;;;;5036728;28;20530;-83
2023/10/29 03:46:15;;;;;;;1.67;0.70;;;;;;;;;;5035436;28;20792;-83
2023/10/29 03:48:44;;;;;;;2.23;0.90;;;;;;;;;;5036532;28;20176;-84
2023/10/29 03:51:14;;;;;;;1.97;0.87;;;;;;;;;;5034596;28;20460;-83
2023/10/29 03:53:40;;;;;;;1.10;0.83;;;;;;;;;;5019110;28;20444;-81
2023/10/29 03:56:06;;;;;;;2.67;0.73;;;;;;;;;;5036658;28;20424;-79
2023/10/29 03:58:32;;;;;;;1.30;0.80;;;;;;;;;;5035566;28;20405;-82
2023/10/29 04:01:01;;;;;;;1.13;0.80;;;;;;;;;;5036641;28;20464;-83
2023/10/29 04:03:27;;;;;;;2.00;0.80;;;;;;;;;;5036083;28;20898;-83
2023/10/29 04:05:53;;;;;;;1.43;0.70;;;;;;;;;;5035004;28;20898;-81
2023/10/29 04:08:19;;;;;;;2.70;0.80;;;;;;;;;;5035841;28;20428;-82
2023/10/29 04:10:45;;;;;;;1.53;0.80;;;;;;;;;;5035222;28;20956;-79
2023/10/29 04:13:11;;;;;;;0.90;0.70;;;;;;;;;;5036419;28;20413;-82
2023/10/29 04:15:38;;;;;;;1.70;0.87;;;;;;;;;;5034978;28;20428;-84
2023/10/29 04:18:04;;;;;;;1.10;0.90;;;;;;;;;;5036101;28;20416;-83
2023/10/29 04:20:30;;;;;;;2.10;0.97;;;;;;;;;;5035868;28;20488;-82
2023/10/29 04:22:56;;;;;;;2.40;0.80;;;;;;;;;;5034314;28;20918;-84
2023/10/29 04:25:22;;;;;;;0.70;0.60;;;;;;;;;;5032504;28;20519;-83
2023/10/29 04:27:48;;;;;;;0.90;0.70;;;;;;;;;;5033123;28;20523;-83
2023/10/29 04:30:14;;;;;;;3.90;1.70;;;;;;;;;;5024399;28;20427;-83
2023/10/29 04:32:40;;;;;;;1.40;0.93;;;;;;;;;;5035635;28;20420;-83
2023/10/29 04:35:06;;;;;;;1.10;0.80;;;;;;;;;;5035710;28;20416;-83
2023/10/29 04:37:32;;;;;;;5.40;0.80;;;;;;;;;;5018366;28;20416;-83
2023/10/29 04:39:58;;;;;;;2.20;0.60;;;;;;;;;;5035126;28;20421;-83
2023/10/29 04:42:24;;;;;;;3.47;0.70;;;;;;;;;;5034416;28;20991;-82
2023/10/29 04:44:50;;;;;;;3.93;1.40;;;;;;;;;;5034156;28;20611;-84
2023/10/29 04:47:16;;;;;;;3.13;0.70;;;;;;;;;;5035270;28;20447;-84
2023/10/29 04:49:43;;;;;;;2.20;0.70;;;;;;;;;;5033961;28;20422;-83
2023/10/29 04:52:09;;;;;;;2.33;0.70;;;;;;;;;;5034290;28;20452;-82
2023/10/29 04:54:36;;;;;;;1.10;0.70;;;;;;;;;;5034124;28;20499;-78
2023/10/29 04:57:02;;;;;;;4.03;1.30;;;;;;;;;;5053582;28;20443;-82
2023/10/29 04:59:28;;;;;;;1.30;0.87;;;;;;;;;;5053587;28;20418;-82
2023/10/29 05:01:54;;;;;;;1.23;0.97;;;;;;;;;;5034215;28;20472;-82
2023/10/29 05:04:20;;;;;;;1.20;1.00;;;;;;;;;;5035733;28;20523;-83
2023/10/29 05:06:46;;;;;;;2.27;1.67;;;;;;;;;;5035598;28;20883;-82
2023/10/29 05:09:12;;;;;;;4.50;1.00;;;;;;;;;;5034330;28;20826;-83
2023/10/29 05:11:38;;;;;;;1.20;0.80;;;;;;;;;;5034281;28;20409;-82
2023/10/29 05:14:04;;;;;;;2.10;0.90;;;;;;;;;;5017806;28;20459;-81
2023/10/29 05:16:30;;;;;;;1.47;0.70;;;;;;;;;;5034930;28;20821;-83
2023/10/29 05:18:56;;;;;;;2.03;0.90;;;;;;;;;;5016623;28;20520;-83
2023/10/29 05:21:22;;;;;;;3.63;1.23;;;;;;;;;;5047595;28;20522;-82
2023/10/29 05:23:48;;;;;;;1.00;0.70;;;;;;;;;;5054348;28;20477;-80
2023/10/29 05:26:14;;;;;;;1.20;0.70;;;;;;;;;;5055626;28;20396;-77
2023/10/29 05:28:40;;;;;;;6.20;0.93;;;;;;;;;;5054764;28;20401;-81
2023/10/29 05:31:06;;;;;;;1.20;0.83;;;;;;;;;;5055032;28;20404;-78
2023/10/29 05:33:32;;;;;;;1.73;0.77;;;;;;;;;;5055084;28;20880;-81
2023/10/29 05:35:58;;;;;;;5.17;0.90;;;;;;;;;;5053998;28;20484;-77
2023/10/29 05:38:24;;;;;;;5.03;1.43;;;;;;;;;;5055012;28;20411;-81
2023/10/29 05:40:50;;;;;;;2.40;0.80;;;;;;;;;;5037558;28;20902;-81
2023/10/29 05:43:16;;;;;;;2.83;0.80;;;;;;;;;;5037700;28;20424;-79
2023/10/29 05:45:44;;;;;;;2.13;0.90;;;;;;;;;;5036960;28;20990;-82
2023/10/29 05:48:10;;;;;;;2.80;1.10;;;;;;;;;;5054130;28;20428;-81
2023/10/29 05:50:38;;;;;;;2.40;1.00;;;;;;;;;;5031903;28;20520;-81
2023/10/29 05:53:04;;;;;;;1.20;0.80;;;;;;;;;;5035134;28;20432;-82
2023/10/29 05:55:30;;;;;;;1.30;0.97;;;;;;;;;;5017312;28;20413;-82
2023/10/29 05:57:58;;;;;;;2.83;0.93;;;;;;;;;;5033501;28;20423;-81
2023/10/29 06:00:24;;;;;;;3.03;0.93;;;;;;;;;;5033219;28;20980;-82
2023/10/29 06:02:50;;;;;;;2.90;0.90;;;;;;;;;;5033279;28;20420;-82
2023/10/29 06:05:15;;;;;;;2.80;1.00;;;;;;;;;;5034824;28;20466;-81
2023/10/29 06:07:43;;;;;;;1.10;0.80;;;;;;;;;;5033240;28;20893;-81
2023/10/29 06:10:11;;;;;;;1.97;0.90;;;;;;;;;;5034093;28;20500;-81
2023/10/29 06:12:37;;;;;;;2.37;0.63;;;;;;;;;;5034744;28;20413;-82
2023/10/29 06:15:03;;;;;;;2.87;0.90;;;;;;;;;;5033387;28;20474;-81
2023/10/29 06:17:29;;;;;;;3.00;1.10;;;;;;;;;;5032987;28;20434;-82
2023/10/29 06:19:55;;;;;;;1.40;0.80;;;;;;;;;;5034600;28;20397;-82
2023/10/29 06:22:22;;;;;;;2.87;1.10;;;;;;;;;;5034886;28;20765;-80
2023/10/29 06:24:48;;;;;;;8.20;1.53;;;;;;;;;;5035180;28;20469;-81
2023/10/29 06:27:14;;;;;;;2.37;1.37;;;;;;;;;;5038701;28;20436;-81
2023/10/29 06:29:40;;;;;;;2.63;0.83;;;;;;;;;;5053051;28;20791;-82
2023/10/29 06:32:06;;;;;;;5.40;1.20;;;;;;;;;;5056791;28;20408;-81
2023/10/29 06:34:32;;;;;;;2.83;0.93;;;;;;;;;;5057028;28;20419;-82
2023/10/29 06:36:58;;;;;;;2.50;1.00;;;;;;;;;;5057979;28;20444;-82
2023/10/29 06:39:24;;;;;;;2.40;0.97;;;;;;;;;;5058137;28;20912;-81
2023/10/29 06:41:50;;;;;;;2.80;0.80;;;;;;;;;;5058000;28;20833;-85
2023/10/29 06:44:16;;;;;;;1.57;0.80;;;;;;;;;;5056996;28;20502;-83
2023/10/29 06:46:42;;;;;;;3.83;1.27;;;;;;;;;;5039411;28;20566;-83
2023/10/29 06:49:08;;;;;;;2.73;1.37;;;;;;;;;;5055642;28;20416;-83
2023/10/29 06:51:34;;;;;;;2.40;0.93;;;;;;;;;;5044202;28;20409;-84
2023/10/29 06:54:00;;;;;;;4.23;1.03;;;;;;;;;;5035473;28;20744;-84
2023/10/29 06:56:27;;;;;;;5.13;1.00;;;;;;;;;;5036648;28;20439;-84
2023/10/29 06:58:53;;;;;;;2.80;1.20;;;;;;;;;;5037084;28;20409;-85
2023/10/29 07:01:19;;;;;;;4.60;1.20;;;;;;;;;;5036858;28;20546;-84
2023/10/29 07:03:45;;;;;;;3.90;1.30;;;;;;;;;;5035662;28;20472;-84
2023/10/29 07:06:13;;;;;;;3.87;1.00;;;;;;;;;;5034989;28;20413;-84
2023/10/29 07:08:39;;;;;;;6.50;1.00;;;;;;;;;;5020577;28;20421;-79
2023/10/29 07:11:05;;;;;;;2.57;0.90;;;;;;;;;;5036885;28;20774;-83
2023/10/29 07:13:32;;;;;;;5.23;1.23;;;;;;;;;;5037005;28;20405;-84
2023/10/29 07:16:02;;;;;;;5.70;1.70;;;;;;;;;;5035210;28;20409;-84
2023/10/29 07:18:29;;;;;;;2.03;0.97;;;;;;;;;;5021827;28;20428;-83
2023/10/29 07:20:55;;;;;;;3.07;1.17;;;;;;;;;;5055592;28;20408;-84
2023/10/29 07:23:22;;;;;;;3.73;0.83;;;;;;;;;;5056756;28;20478;-83
2023/10/29 07:25:48;;;;;;;3.40;1.30;;;;;;;;;;5042136;28;20480;-84
2023/10/29 07:28:14;;;;;;;2.43;0.80;;;;;;;;;;5034322;28;20443;-83
2023/10/29 07:30:41;;;;;;;5.60;1.80;;;;;;;;;;5018382;28;20429;-83
2023/10/29 07:33:08;;;;;;;2.80;1.00;;;;;;;;;;5034188;28;20516;-85
2023/10/29 07:35:34;;;;;;;1.93;0.90;;;;;;;;;;5018850;28;20432;-84
2023/10/29 07:38:00;;;;;;;2.10;1.00;;;;;;;;;;5034910;28;20401;-84
2023/10/29 07:40:26;;;;;;;1.03;0.60;;;;;;;;;;5035430;28;20415;-83
2023/10/29 07:42:52;;;;;;;2.03;0.77;;;;;;;;;;5034279;28;20978;-82
2023/10/29 07:45:18;;;;;;;9.20;1.33;;;;;;;;;;5035336;28;20535;-82
2023/10/29 07:47:44;;;;;;;5.40;1.20;;;;;;;;;;5034878;28;20417;-81
2023/10/29 07:50:11;;;;;;;1.70;0.90;;;;;;;;;;5036072;28;20417;-84
2023/10/29 07:52:39;;;;;;;1.73;1.57;;;;;;;;;;5047681;28;20511;-82
2023/10/29 07:55:15;;;;;;;2.28;1.17;;;;;;;;;;5055285;28;20448;-82
2023/10/29 07:57:41;;;;;;;1.10;0.67;;;;;;;;;;5054883;28;20263;-83
2023/10/29 08:00:09;;;;;;;2.20;0.90;;;;;;;;;;5054594;28;20456;-82
2023/10/29 08:02:36;;;;;;;2.83;0.83;;;;;;;;;;5054962;28;20753;-86
2023/10/29 08:05:02;;;;;;;1.90;0.90;;;;;;;;;;5054391;28;20966;-85
2023/10/29 08:07:29;;;;;;;5.10;0.83;;;;;;;;;;5026455;28;20425;-85
2023/10/29 08:09:56;;;;;;;2.10;0.80;;;;;;;;;;5034279;28;20786;-86
2023/10/29 08:12:22;;;;;;;1.87;0.90;;;;;;;;;;5047971;28;20435;-85
2023/10/29 08:14:48;;;;;;;2.83;1.20;;;;;;;;;;5054292;28;20420;-85
2023/10/29 08:17:17;;;;;;;3.17;0.80;;;;;;;;;;5054319;28;20432;-84
2023/10/29 08:19:43;;;;;;;4.60;0.80;;;;;;;;;;5054101;28;20420;-85
2023/10/29 08:22:09;;;;;;;5.50;1.30;;;;;;;;;;5055568;28;20447;-84
2023/10/29 08:24:35;;;;;;;1.57;0.70;;;;;;;;;;5037549;28;20561;-84
2023/10/29 08:27:01;;;;;;;4.03;0.80;;;;;;;;;;5055024;28;20926;-84
2023/10/29 08:29:27;;;;;;;3.03;0.97;;;;;;;;;;5054294;28;20416;-84
2023/10/29 08:31:53;;;;;;;1.13;0.90;;;;;;;;;;5037462;28;20557;-84
2023/10/29 08:34:20;;;;;;;4.83;0.90;;;;;;;;;;5054737;28;20938;-84
2023/10/29 08:36:46;;;;;;;3.77;0.93;;;;;;;;;;5053873;28;20411;-83
2023/10/29 08:39:14;;;;;;;5.00;1.00;;;;;;;;;;5054279;28;20416;-84
2023/10/29 08:41:40;;;;;;;2.33;0.83;;;;;;;;;;5054255;28;20495;-85
2023/10/29 08:44:06;;;;;;;3.27;1.00;;;;;;;;;;5037872;28;20502;-82
2023/10/29 08:46:32;;;;;;;1.70;0.83;;;;;;;;;;5055516;28;20404;-85
2023/10/29 08:48:58;;;;;;;2.30;0.70;;;;;;;;;;5025289;28;20475;-85
2023/10/29 08:51:24;;;;;;;2.30;1.03;;;;;;;;;;5033993;28;20478;-84
2023/10/29 08:53:49;;;;;;;2.00;0.77;;;;;;;;;;5033679;28;20988;-84
2023/10/29 08:56:15;;;;;;;1.60;0.80;;;;;;;;;;5017163;28;20425;-84
2023/10/29 08:58:42;;;;;;;4.40;1.07;;;;;;;;;;5017853;28;20515;-85
2023/10/29 09:01:11;;;;;;;4.23;1.07;;;;;;;;;;5037683;28;20967;-84
2023/10/29 09:03:37;;;;;;;2.93;0.90;;;;;;;;;;5054584;28;20404;-84
2023/10/29 09:06:03;;;;;;;2.53;1.03;;;;;;;;;;5053257;28;20788;-84
2023/10/29 09:08:31;;;;;;;2.47;0.80;;;;;;;;;;5053602;28;20422;-84
2023/10/29 09:10:56;;;;;;;1.57;0.70;;;;;;;;;;5053144;28;20419;-85
2023/10/29 09:13:23;;;;;;;2.20;0.70;;;;;;;;;;5054545;28;20422;-85
2023/10/29 09:15:50;;;;;;;1.43;0.70;;;;;;;;;;5054835;28;20542;-85
2023/10/29 09:18:16;;;;;;;1.63;0.70;;;;;;;;;;5036890;28;20423;-85
2023/10/29 09:20:46;;;;;;;1.50;0.77;;;;;;;;;;5053275;28;20420;-83
2023/10/29 09:23:12;;;;;;;2.90;0.73;;;;;;;;;;5037250;28;20518;-83
2023/10/29 09:25:38;;;;;;;3.57;1.20;;;;;;;;;;5054206;28;20570;-84
2023/10/29 09:28:05;;;;;;;1.90;1.03;;;;;;;;;;5054269;28;20542;-84
2023/10/29 09:30:31;;;;;;;1.03;0.60;;;;;;;;;;5054264;28;20805;-84
2023/10/29 09:32:58;;;;;;;2.90;1.13;;;;;;;;;;5054016;28;20895;-84
2023/10/29 09:35:24;;;;;;;1.27;0.80;;;;;;;;;;5037019;28;20494;-85
2023/10/29 09:37:50;;;;;;;2.23;0.90;;;;;;;;;;5036701;28;20422;-85
2023/10/29 09:40:19;;;;;;;1.87;0.80;;;;;;;;;;5053127;28;20826;-85
2023/10/29 09:42:50;;;;;;;5.07;0.77;;;;;;;;;;5036914;28;20416;-84
2023/10/29 09:45:18;;;;;;;2.00;0.80;;;;;;;;;;5052984;28;20471;-85
2023/10/29 09:47:44;;;;;;;2.10;0.70;;;;;;;;;;5036539;28;20428;-85
2023/10/29 09:50:11;;;;;;;2.53;0.83;;;;;;;;;;5050341;28;20960;-84
2023/10/29 09:52:37;;;;;;;2.77;1.00;;;;;;;;;;5034548;28;20427;-85
2023/10/29 09:55:04;;;;;;;2.20;0.83;;;;;;;;;;5033310;28;20807;-83
2023/10/29 09:57:30;;;;;;;2.43;0.87;;;;;;;;;;5033089;28;20781;-84
2023/10/29 09:59:56;;;;;;;1.87;0.83;;;;;;;;;;5033942;28;20469;-84
2023/10/29 10:02:23;;;;;;;2.67;1.10;;;;;;;;;;5020850;28;20412;-84
2023/10/29 10:04:50;;;;;;;2.70;1.07;;;;;;;;;;5036840;28;20471;-84
2023/10/29 10:07:16;;;;;;;2.40;1.13;;;;;;;;;;5036748;28;20413;-84
2023/10/29 10:09:57;;;;;;;5.30;1.03;;;;;;;;;;5038595;28;20412;-85
2023/10/29 10:12:25;;;;;;;5.77;1.10;;;;;;;;;;5056320;28;20428;-85
2023/10/29 10:14:52;;;;;;;3.07;0.90;;;;;;;;;;5060236;28;20424;-84
2023/10/29 10:17:18;;;;;;;2.30;0.90;;;;;;;;;;5057079;28;20408;-85
2023/10/29 10:19:44;;;;;;;3.57;0.83;;;;;;;;;;5040359;28;20420;-84
2023/10/29 10:22:10;;;;;;;1.90;0.80;;;;;;;;;;5059219;28;20528;-85
2023/10/29 10:24:40;;;;;;;3.17;0.70;;;;;;;;;;5056616;28;20559;-85
2023/10/29 10:27:07;;;;;;;6.83;1.00;;;;;;;;;;5057846;28;20481;-84
2023/10/29 10:29:33;;;;;;;6.60;1.50;;;;;;;;;;5056438;28;20404;-85
2023/10/29 10:32:01;;;;;;;2.60;0.97;;;;;;;;;;5057556;28;20491;-86
2023/10/29 10:34:27;;;;;;;3.73;1.10;;;;;;;;;;5043285;28;20507;-84
2023/10/29 10:36:58;;;;;;;4.63;1.20;;;;;;;;;;5036669;28;20529;-84
2023/10/29 10:39:27;;;;;;;3.33;1.40;;;;;;;;;;5036557;28;20761;-85
2023/10/29 10:41:55;;;;;;;2.77;0.90;;;;;;;;;;5036273;28;20448;-84
2023/10/29 10:44:21;;;;;;;2.50;1.10;;;;;;;;;;5037604;28;20460;-85
2023/10/29 10:46:48;;;;;;;1.93;0.80;;;;;;;;;;5037802;28;20412;-83
2023/10/29 10:49:15;;;;;;;2.80;1.10;;;;;;;;;;5036238;28;20868;-84
2023/10/29 10:51:41;;;;;;;3.07;1.17;;;;;;;;;;5036302;28;20420;-84
2023/10/29 10:54:07;;;;;;;2.97;0.97;;;;;;;;;;5036049;28;20746;-85
2023/10/29 10:56:37;;;;;;;3.50;1.00;;;;;;;;;;5036314;28;20413;-84
2023/10/29 10:59:05;;;;;;;5.07;1.47;;;;;;;;;;5037164;28;20840;-85
2023/10/29 11:01:31;;;;;;;2.13;0.80;;;;;;;;;;5041395;28;20566;-84
2023/10/29 11:03:58;;;;;;;2.43;0.90;;;;;;;;;;5056983;28;20455;-85
2023/10/29 11:06:24;;;;;;;2.17;1.00;;;;;;;;;;5055368;28;20449;-85
2023/10/29 11:08:52;;;;;;;2.33;0.80;;;;;;;;;;5056107;28;20412;-85
2023/10/29 11:11:18;;;;;;;2.17;0.90;;;;;;;;;;5052731;28;20448;-84
2023/10/29 11:13:44;;;;;;;5.30;1.10;;;;;;;;;;5035532;28;20788;-83
2023/10/29 11:16:24;;;;;;;1.00;0.67;;;;;;;;;;5019022;28;20503;-85
2023/10/29 11:18:50;;;;;;;2.70;0.90;;;;;;;;;;5019692;28;20479;-85
2023/10/29 11:21:35;;;;;;;2.60;0.70;;;;;;;;;;5035715;28;20775;-84
2023/10/29 11:24:22;;;;;;;1.40;0.90;;;;;;;;;;5019236;28;20555;-84
2023/10/29 11:26:48;;;;;;;0.87;0.73;;;;;;;;;;5036507;28;20898;-84
2023/10/29 11:29:33;;;;;;;2.13;0.60;;;;;;;;;;5038675;28;20434;-84
2023/10/29 11:32:19;;;;;;;1.13;0.50;;;;;;;;;;5035678;28;20417;-82
2023/10/29 11:34:45;;;;;;;1.00;0.70;;;;;;;;;;5036869;28;20412;-84
2023/10/29 11:37:43;;;;;;;1.33;0.60;;;;;;;;;;5019067;28;20452;-82
2023/10/29 11:40:24;;;;;;;4.93;0.70;;;;;;;;;;5035123;28;20570;-83
2023/10/29 11:42:54;;;;;;;1.43;0.70;;;;;;;;;;5036452;28;20496;-84
2023/10/29 11:45:29;;;;;;;1.97;0.70;;;;;;;;;;5035484;28;20859;-83
2023/10/29 11:48:16;;;;;;;1.00;0.60;;;;;;;;;;5036647;28;20409;-84
2023/10/29 11:50:43;;;;;;;1.00;0.83;;;;;;;;;;5037064;28;20390;-83
2023/10/29 11:53:24;;;;;;;1.30;0.60;;;;;;;;;;5034993;28;20479;-83
2023/10/29 11:55:51;;;;;;;0.70;0.60;;;;;;;;;;5036167;28;20417;-84
2023/10/29 11:58:22;;;;;;;2.37;0.73;;;;;;;;;;5038015;28;20503;-82
2023/10/29 12:00:48;;;;;;;3.43;0.97;;;;;;;;;;5054862;28;20463;-83
2023/10/29 12:03:19;;;;;;;0.80;0.50;;;;;;;;;;5054431;28;20416;-85
2023/10/29 12:05:48;;;;;;;2.10;0.70;;;;;;;;;;5055851;28;20458;-84
2023/10/29 12:08:14;;;;;;;1.10;0.70;;;;;;;;;;5055795;28;20484;-85
2023/10/29 12:10:47;;;;;;;1.10;0.70;;;;;;;;;;5054618;28;20428;-85
2023/10/29 12:13:12;;;;;;;4.57;0.60;;;;;;;;;;5055826;28;20415;-84
2023/10/29 12:15:39;;;;;;;1.70;0.87;;;;;;;;;;5037799;28;20782;-84
2023/10/29 12:18:05;;;;;;;1.33;0.70;;;;;;;;;;5055355;28;20419;-83
2023/10/29 12:20:31;;;;;;;1.43;0.60;;;;;;;;;;5054761;28;20412;-84
2023/10/29 12:22:58;;;;;;;1.20;0.70;;;;;;;;;;5054800;28;20427;-82
2023/10/29 12:25:24;;;;;;;1.77;0.60;;;;;;;;;;5054272;28;20862;-83
2023/10/29 12:27:50;;;;;;;1.00;0.60;;;;;;;;;;5054808;28;20433;-84
2023/10/29 12:30:35;;;;;;;0.90;0.60;;;;;;;;;;5037513;28;20430;-84
2023/10/29 12:33:20;;;;;;;2.17;0.70;;;;;;;;;;5054273;28;20408;-84
2023/10/29 12:35:50;;;;;;;1.10;0.70;;;;;;;;;;5054124;28;20515;-83
2023/10/29 12:38:16;;;;;;;1.00;0.60;;;;;;;;;;5053942;28;20419;-85
2023/10/29 12:41:01;;;;;;;0.97;0.60;;;;;;;;;;5055241;28;20392;-85
2023/10/29 12:43:37;;;;;;;1.10;0.70;;;;;;;;;;5053260;28;20416;-85
2023/10/29 12:46:05;;;;;;;1.57;0.60;;;;;;;;;;5037422;28;20443;-85
2023/10/29 12:48:31;;;;;;;2.03;0.70;;;;;;;;;;5037240;28;20808;-85
2023/10/29 12:50:58;;;;;;;0.70;0.50;;;;;;;;;;5053726;28;20458;-84
2023/10/29 12:53:28;;;;;;;1.40;0.93;;;;;;;;;;5053222;28;20431;-84
2023/10/29 12:55:54;;;;;;;1.17;0.60;;;;;;;;;;5054995;28;20595;-85
2023/10/29 12:58:21;;;;;;;1.07;0.57;;;;;;;;;;5037106;28;20482;-84
2023/10/29 13:00:47;;;;;;;0.67;0.50;;;;;;;;;;5053688;28;20525;-83
2023/10/29 13:03:13;;;;;;;1.40;0.70;;;;;;;;;;5054907;28;20407;-85
2023/10/29 13:05:39;;;;;;;1.10;0.60;;;;;;;;;;5053667;28;20470;-84
2023/10/29 13:08:05;;;;;;;1.97;0.60;;;;;;;;;;5053566;28;20424;-82
2023/10/29 13:10:32;;;;;;;1.90;0.60;;;;;;;;;;5037508;28;20503;-83
2023/10/29 13:12:59;;;;;;;0.90;0.60;;;;;;;;;;5050678;28;20460;-83
2023/10/29 13:15:25;;;;;;;3.53;0.83;;;;;;;;;;5034875;28;20429;-83
2023/10/29 13:17:51;;;;;;;1.03;0.60;;;;;;;;;;5034140;28;20428;-83
2023/10/29 13:20:20;;;;;;;1.83;0.63;;;;;;;;;;5033701;28;20420;-84
2023/10/29 13:22:46;;;;;;;1.17;0.70;;;;;;;;;;5033727;28;20639;-83
2023/10/29 13:25:13;;;;;;;1.20;0.70;;;;;;;;;;5034174;28;20461;-84
2023/10/29 13:27:40;;;;;;;0.90;0.80;;;;;;;;;;5033360;28;20934;-83
2023/10/29 13:30:07;;;;;;;1.10;0.70;;;;;;;;;;5035166;28;20401;-83
2023/10/29 13:32:34;;;;;;;1.27;0.90;;;;;;;;;;5034935;28;20415;-83
2023/10/29 13:35:00;;;;;;;2.57;0.80;;;;;;;;;;5033832;28;20405;-83
2023/10/29 13:37:26;;;;;;;1.13;0.80;;;;;;;;;;5033661;28;20414;-83
2023/10/29 13:39:53;;;;;;;1.57;0.90;;;;;;;;;;5017591;28;20984;-83
2023/10/29 13:42:19;;;;;;;0.90;0.70;;;;;;;;;;5032324;28;20432;-78
2023/10/29 13:44:45;;;;;;;0.70;0.60;;;;;;;;;;5035088;28;20468;-82
2023/10/29 13:47:11;;;;;;;1.10;0.70;;;;;;;;;;5035058;28;20413;-83
2023/10/29 13:49:37;;;;;;;1.37;0.77;;;;;;;;;;5017279;28;20847;-83
2023/10/29 13:52:03;;;;;;;2.00;0.70;;;;;;;;;;5034560;28;20425;-80
2023/10/29 13:54:29;;;;;;;0.80;0.60;;;;;;;;;;5017308;28;20460;-81
2023/10/29 13:56:55;;;;;;;1.13;0.60;;;;;;;;;;5017199;28;20467;-82
2023/10/29 13:59:21;;;;;;;4.23;0.63;;;;;;;;;;5046634;28;20415;-83
2023/10/29 14:01:47;;;;;;;1.97;0.80;;;;;;;;;;5052936;28;20460;-83
2023/10/29 14:04:13;;;;;;;0.90;0.60;;;;;;;;;;5053032;28;20474;-81
2023/10/29 14:06:40;;;;;;;1.30;0.70;;;;;;;;;;5053441;28;20428;-78
2023/10/29 14:09:06;;;;;;;1.73;1.60;;;;;;;;;;5042885;28;20483;-80
2023/10/29 14:11:32;;;;;;;1.00;0.70;;;;;;;;;;5034156;28;20483;-84
2023/10/29 14:13:58;;;;;;;4.03;1.10;;;;;;;;;;5034317;28;20427;-85
2023/10/29 14:16:37;;;;;;;2.00;1.20;;;;;;;;;;5032890;28;20874;-84
2023/10/29 14:19:04;;;;;;;2.63;0.70;;;;;;;;;;5033285;28;20415;-83
2023/10/29 14:21:30;;;;;;;2.40;1.40;;;;;;;;;;5034265;28;20380;-82
2023/10/29 14:23:56;;;;;;;1.60;1.30;;;;;;;;;;5045525;28;20922;-82
2023/10/29 14:26:22;;;;;;;1.23;1.13;;;;;;;;;;5052842;28;20506;-81
2023/10/29 14:28:48;;;;;;;2.80;1.83;;;;;;;;;;5053337;28;20773;-80
2023/10/29 14:31:14;;;;;;;1.67;1.10;;;;;;;;;;5054067;28;20423;-82
2023/10/29 14:33:40;;;;;;;1.17;1.07;;;;;;;;;;5053371;28;20511;-82
2023/10/29 14:36:07;;;;;;;1.00;0.80;;;;;;;;;;5053302;28;20412;-82
2023/10/29 14:38:33;;;;;;;1.10;0.70;;;;;;;;;;5052609;28;20700;-83
2023/10/29 14:40:59;;;;;;;0.97;0.67;;;;;;;;;;5053060;28;20386;-82
2023/10/29 14:43:26;;;;;;;1.43;0.80;;;;;;;;;;5052454;28;20424;-82